sensor_id;sensor_type;location;lat;lon;timestamp;pressure;altitude;pressure_sealevel;temperature;humidity
48200;BME280;33990;44.602;10.976;2023-04-08T00:02:15;101064.53;;;18.31;42.64
48200;BME280;33990;44.602;10.976;2023-04-08T00:04:43;101061.75;;;18.32;42.76
48200;BME280;33990;44.602;10.976;2023-04-08T00:07:10;101059.19;;;18.31;42.76
48200;BME280;33990;44.602;10.976;2023-04-08T00:09:37;101065.44;;;18.31;42.64
48200;BME280;33990;44.602;10.976;2023-04-08T00:12:05;101063.69;;;18.30;42.84
48200;BME280;33990;44.602;10.976;2023-04-08T00:14:32;101069.91;;;18.31;42.73
48200;BME280;33990;44.602;10.976;2023-04-08T00:17:00;101070.88;;;18.29;42.65
48200;BME280;33990;44.602;10.976;2023-04-08T00:19:27;101073.47;;;18.31;42.80
48200;BME280;33990;44.602;10.976;2023-04-08T00:21:55;101059.19;;;18.31;42.70
48200;BME280;33990;44.602;10.976;2023-04-08T00:24:22;101068.22;;;18.29;42.51
48200;BME280;33990;44.602;10.976;2023-04-08T00:26:50;101072.59;;;18.31;42.75
48200;BME280;33990;44.602;10.976;2023-04-08T00:29:17;101068.22;;;18.29;42.79
48200;BME280;33990;44.602;10.976;2023-04-08T00:31:45;101077.09;;;18.30;42.85
48200;BME280;33990;44.602;10.976;2023-04-08T00:34:12;101081.59;;;18.29;42.92
48200;BME280;33990;44.602;10.976;2023-04-08T00:36:40;101080.63;;;18.31;42.83
48200;BME280;33990;44.602;10.976;2023-04-08T00:39:07;101081.59;;;18.29;42.87
48200;BME280;33990;44.602;10.976;2023-04-08T00:41:34;101074.41;;;18.30;42.88
48200;BME280;33990;44.602;10.976;2023-04-08T00:44:02;101073.56;;;18.29;42.87
48200;BME280;33990;44.602;10.976;2023-04-08T00:46:30;101078.94;;;18.29;42.87
48200;BME280;33990;44.602;10.976;2023-04-08T00:48:59;101070.88;;;18.29;42.89
48200;BME280;33990;44.602;10.976;2023-04-08T00:51:28;101076.25;;;18.29;42.92
48200;BME280;33990;44.602;10.976;2023-04-08T00:53:57;101073.56;;;18.29;42.96
48200;BME280;33990;44.602;10.976;2023-04-08T00:56:26;101067.34;;;18.29;42.97
48200;BME280;33990;44.602;10.976;2023-04-08T00:58:54;101068.22;;;18.29;43.07
48200;BME280;33990;44.602;10.976;2023-04-08T01:04:48;101064.69;;;18.29;43.03
48200;BME280;33990;44.602;10.976;2023-04-08T01:07:36;101059.31;;;18.29;43.20
48200;BME280;33990;44.602;10.976;2023-04-08T01:10:12;101064.69;;;18.29;43.16
48200;BME280;33990;44.602;10.976;2023-04-08T01:12:52;101061.00;;;18.30;43.15
48200;BME280;33990;44.602;10.976;2023-04-08T01:15:21;101055.78;;;18.28;43.32
48200;BME280;33990;44.602;10.976;2023-04-08T01:17:52;101047.75;;;18.28;43.20
48200;BME280;33990;44.602;10.976;2023-04-08T01:20:21;101053.09;;;18.28;43.38
48200;BME280;33990;44.602;10.976;2023-04-08T01:25:33;101048.59;;;18.29;43.13
48200;BME280;33990;44.602;10.976;2023-04-08T01:28:05;101059.31;;;18.29;43.21
48200;BME280;33990;44.602;10.976;2023-04-08T01:30:34;101042.38;;;18.28;43.32
48200;BME280;33990;44.602;10.976;2023-04-08T01:33:04;101038.84;;;18.28;43.31
48200;BME280;33990;44.602;10.976;2023-04-08T01:35:32;101045.91;;;18.29;43.13
48200;BME280;33990;44.602;10.976;2023-04-08T01:38:02;101038.00;;;18.27;43.27
48200;BME280;33990;44.602;10.976;2023-04-08T01:40:29;101047.75;;;18.28;43.19
48200;BME280;33990;44.602;10.976;2023-04-08T01:42:59;101041.53;;;18.28;43.36
48200;BME280;33990;44.602;10.976;2023-04-08T01:45:29;101045.16;;;18.27;43.23
48200;BME280;33990;44.602;10.976;2023-04-08T01:47:57;101049.69;;;18.26;43.34
48200;BME280;33990;44.602;10.976;2023-04-08T01:50:26;101051.41;;;18.27;43.18
48200;BME280;33990;44.602;10.976;2023-04-08T01:52:56;101056.63;;;18.29;43.40
48200;BME280;33990;44.602;10.976;2023-04-08T01:55:25;101052.25;;;18.28;43.46
48200;BME280;33990;44.602;10.976;2023-04-08T01:57:55;101052.25;;;18.28;43.40
48200;BME280;33990;44.602;10.976;2023-04-08T02:00:27;101050.53;;;18.27;43.45
48200;BME280;33990;44.602;10.976;2023-04-08T02:02:56;101049.56;;;18.28;43.43
48200;BME280;33990;44.602;10.976;2023-04-08T02:05:24;101052.25;;;18.28;43.45
48200;BME280;33990;44.602;10.976;2023-04-08T02:07:51;101054.94;;;18.28;43.54
48200;BME280;33990;44.602;10.976;2023-04-08T02:10:19;101056.78;;;18.27;43.53
48200;BME280;33990;44.602;10.976;2023-04-08T02:12:47;101052.25;;;18.28;43.49
48200;BME280;33990;44.602;10.976;2023-04-08T02:15:14;101053.09;;;18.28;43.63
48200;BME280;33990;44.602;10.976;2023-04-08T02:17:51;101058.47;;;18.28;43.64
48200;BME280;33990;44.602;10.976;2023-04-08T02:20:30;101055.78;;;18.28;43.68
48200;BME280;33990;44.602;10.976;2023-04-08T02:23:15;101058.47;;;18.28;43.72
48200;BME280;33990;44.602;10.976;2023-04-08T02:25:47;101065.66;;;18.28;43.71
48200;BME280;33990;44.602;10.976;2023-04-08T02:28:16;101054.09;;;18.27;43.64
48200;BME280;33990;44.602;10.976;2023-04-08T02:30:47;101062.97;;;18.28;43.63
48200;BME280;33990;44.602;10.976;2023-04-08T02:33:19;101062.13;;;18.27;43.64
48200;BME280;33990;44.602;10.976;2023-04-08T02:35:48;101068.34;;;18.28;43.72
48200;BME280;33990;44.602;10.976;2023-04-08T02:38:17;101070.16;;;18.27;43.66
48200;BME280;33990;44.602;10.976;2023-04-08T02:40:44;101072.84;;;18.27;43.71
48200;BME280;33990;44.602;10.976;2023-04-08T02:43:11;101070.16;;;18.27;43.61
48200;BME280;33990;44.602;10.976;2023-04-08T02:45:43;101078.31;;;18.26;43.63
48200;BME280;33990;44.602;10.976;2023-04-08T02:48:10;101081.84;;;18.26;43.57
48200;BME280;33990;44.602;10.976;2023-04-08T02:50:38;101088.94;;;18.27;43.67
48200;BME280;33990;44.602;10.976;2023-04-08T02:53:07;101083.56;;;18.27;43.79
48200;BME280;33990;44.602;10.976;2023-04-08T02:55:36;101081.75;;;18.28;43.65
48200;BME280;33990;44.602;10.976;2023-04-08T02:58:04;101083.56;;;18.27;43.65
48200;BME280;33990;44.602;10.976;2023-04-08T03:00:31;101080.88;;;18.27;43.72
48200;BME280;33990;44.602;10.976;2023-04-08T03:02:58;101071.97;;;18.27;43.83
48200;BME280;33990;44.602;10.976;2023-04-08T03:05:26;101087.09;;;18.28;43.81
48200;BME280;33990;44.602;10.976;2023-04-08T03:07:54;101077.22;;;18.28;43.90
48200;BME280;33990;44.602;10.976;2023-04-08T03:10:21;101071.97;;;18.27;43.78
48200;BME280;33990;44.602;10.976;2023-04-08T03:12:48;101073.81;;;18.26;43.79
48200;BME280;33990;44.602;10.976;2023-04-08T03:15:15;101077.31;;;18.27;43.91
48200;BME280;33990;44.602;10.976;2023-04-08T03:17:43;101071.97;;;18.27;43.89
48200;BME280;33990;44.602;10.976;2023-04-08T03:20:10;101074.66;;;18.27;43.77
48200;BME280;33990;44.602;10.976;2023-04-08T03:22:38;101079.16;;;18.26;43.84
48200;BME280;33990;44.602;10.976;2023-04-08T03:25:05;101073.81;;;18.26;43.89
48200;BME280;33990;44.602;10.976;2023-04-08T03:27:32;101073.81;;;18.26;43.88
48200;BME280;33990;44.602;10.976;2023-04-08T03:30:01;101077.47;;;18.25;43.83
48200;BME280;33990;44.602;10.976;2023-04-08T03:32:28;101072.84;;;18.27;43.98
48200;BME280;33990;44.602;10.976;2023-04-08T03:34:55;101078.22;;;18.27;43.93
48200;BME280;33990;44.602;10.976;2023-04-08T03:37:23;101079.91;;;18.28;43.88
48200;BME280;33990;44.602;10.976;2023-04-08T03:39:50;101072.84;;;18.27;43.90
48200;BME280;33990;44.602;10.976;2023-04-08T03:42:18;101077.31;;;18.27;44.03
48200;BME280;33990;44.602;10.976;2023-04-08T03:44:45;101083.56;;;18.27;43.92
48200;BME280;33990;44.602;10.976;2023-04-08T03:47:12;101088.03;;;18.27;43.76
48200;BME280;33990;44.602;10.976;2023-04-08T03:49:39;101084.53;;;18.26;43.81
48200;BME280;33990;44.602;10.976;2023-04-08T03:52:07;101097.06;;;18.26;43.74
48200;BME280;33990;44.602;10.976;2023-04-08T03:54:34;101095.25;;;18.26;43.85
48200;BME280;33990;44.602;10.976;2023-04-08T03:57:01;101096.09;;;18.27;43.78
48200;BME280;33990;44.602;10.976;2023-04-08T03:59:29;101108.78;;;18.25;43.84
48200;BME280;33990;44.602;10.976;2023-04-08T04:01:56;101110.47;;;18.26;43.87
48200;BME280;33990;44.602;10.976;2023-04-08T04:04:23;101109.63;;;18.25;43.94
48200;BME280;33990;44.602;10.976;2023-04-08T04:06:51;101114.97;;;18.25;43.79
48200;BME280;33990;44.602;10.976;2023-04-08T04:09:19;101123.00;;;18.25;43.90
48200;BME280;33990;44.602;10.976;2023-04-08T04:11:46;101124.72;;;18.26;43.83
48200;BME280;33990;44.602;10.976;2023-04-08T04:14:13;101121.31;;;18.24;43.79
48200;BME280;33990;44.602;10.976;2023-04-08T04:16:41;101122.16;;;18.25;43.79
48200;BME280;33990;44.602;10.976;2023-04-08T04:19:08;101120.34;;;18.25;43.83
48200;BME280;33990;44.602;10.976;2023-04-08T04:21:35;101116.81;;;18.25;43.71
48200;BME280;33990;44.602;10.976;2023-04-08T04:24:03;101115.97;;;18.24;43.63
48200;BME280;33990;44.602;10.976;2023-04-08T04:26:30;101121.31;;;18.24;43.76
48200;BME280;33990;44.602;10.976;2023-04-08T04:28:58;101124.00;;;18.24;43.72
48200;BME280;33990;44.602;10.976;2023-04-08T04:31:25;101115.97;;;18.24;43.76
48200;BME280;33990;44.602;10.976;2023-04-08T04:33:53;101120.47;;;18.24;43.77
48200;BME280;33990;44.602;10.976;2023-04-08T04:36:20;101126.69;;;18.24;43.85
48200;BME280;33990;44.602;10.976;2023-04-08T04:38:48;101124.00;;;18.24;43.88
48200;BME280;33990;44.602;10.976;2023-04-08T04:41:17;101124.97;;;18.23;43.79
48200;BME280;33990;44.602;10.976;2023-04-08T04:43:44;101121.31;;;18.24;43.72
48200;BME280;33990;44.602;10.976;2023-04-08T04:46:11;101123.16;;;18.24;43.76
48200;BME280;33990;44.602;10.976;2023-04-08T04:48:39;101122.28;;;18.23;43.63
48200;BME280;33990;44.602;10.976;2023-04-08T04:51:06;101125.81;;;18.24;43.87
48200;BME280;33990;44.602;10.976;2023-04-08T04:53:34;101125.81;;;18.24;43.76
48200;BME280;33990;44.602;10.976;2023-04-08T04:56:01;101122.41;;;18.22;43.94
48200;BME280;33990;44.602;10.976;2023-04-08T04:58:29;101119.63;;;18.23;43.80
48200;BME280;33990;44.602;10.976;2023-04-08T05:00:56;101125.91;;;18.22;43.77
48200;BME280;33990;44.602;10.976;2023-04-08T05:03:24;101127.75;;;18.22;43.78
48200;BME280;33990;44.602;10.976;2023-04-08T05:05:53;101130.34;;;18.23;43.87
48200;BME280;33990;44.602;10.976;2023-04-08T05:08:20;101137.50;;;18.23;43.92
48200;BME280;33990;44.602;10.976;2023-04-08T05:10:47;101138.38;;;18.23;43.90
48200;BME280;33990;44.602;10.976;2023-04-08T05:13:17;101139.31;;;18.22;43.90
48200;BME280;33990;44.602;10.976;2023-04-08T05:15:44;101139.31;;;18.22;43.98
48200;BME280;33990;44.602;10.976;2023-04-08T05:18:12;101139.31;;;18.22;43.82
48200;BME280;33990;44.602;10.976;2023-04-08T05:20:40;101136.63;;;18.22;43.93
48200;BME280;33990;44.602;10.976;2023-04-08T05:23:07;101137.63;;;18.21;43.79
48200;BME280;33990;44.602;10.976;2023-04-08T05:25:35;101139.31;;;18.22;43.90
48200;BME280;33990;44.602;10.976;2023-04-08T05:28:02;101138.47;;;18.22;43.88
48200;BME280;33990;44.602;10.976;2023-04-08T05:30:30;101150.03;;;18.22;43.89
48200;BME280;33990;44.602;10.976;2023-04-08T05:32:58;101151.78;;;18.23;43.90
48200;BME280;33990;44.602;10.976;2023-04-08T05:35:27;101150.03;;;18.22;43.94
48200;BME280;33990;44.602;10.976;2023-04-08T05:37:55;101150.03;;;18.22;44.00
48200;BME280;33990;44.602;10.976;2023-04-08T05:40:22;101154.56;;;18.22;43.90
48200;BME280;33990;44.602;10.976;2023-04-08T05:42:49;101155.41;;;18.22;44.00
48200;BME280;33990;44.602;10.976;2023-04-08T05:45:17;101150.03;;;18.22;43.97
48200;BME280;33990;44.602;10.976;2023-04-08T05:47:44;101148.34;;;18.21;44.03
48200;BME280;33990;44.602;10.976;2023-04-08T05:50:12;101154.56;;;18.22;43.96
48200;BME280;33990;44.602;10.976;2023-04-08T05:52:43;101153.69;;;18.21;43.82
48200;BME280;33990;44.602;10.976;2023-04-08T05:55:13;101159.91;;;18.22;44.01
48200;BME280;33990;44.602;10.976;2023-04-08T05:57:40;101157.22;;;18.22;43.97
48200;BME280;33990;44.602;10.976;2023-04-08T06:00:09;101159.06;;;18.21;44.11
48200;BME280;33990;44.602;10.976;2023-04-08T06:02:37;101161.75;;;18.21;43.97
48200;BME280;33990;44.602;10.976;2023-04-08T06:05:05;101164.41;;;18.21;44.00
48200;BME280;33990;44.602;10.976;2023-04-08T06:07:32;101160.88;;;18.21;44.06
48200;BME280;33990;44.602;10.976;2023-04-08T06:10:01;101167.09;;;18.21;44.05
48200;BME280;33990;44.602;10.976;2023-04-08T06:12:28;101171.59;;;18.21;44.10
48200;BME280;33990;44.602;10.976;2023-04-08T06:14:56;101169.78;;;18.21;44.15
48200;BME280;33990;44.602;10.976;2023-04-08T06:17:23;101170.63;;;18.22;44.03
48200;BME280;33990;44.602;10.976;2023-04-08T06:19:50;101174.16;;;18.22;44.15
48200;BME280;33990;44.602;10.976;2023-04-08T06:22:18;101180.50;;;18.21;44.11
48200;BME280;33990;44.602;10.976;2023-04-08T06:24:46;101181.47;;;18.20;44.08
48200;BME280;33990;44.602;10.976;2023-04-08T06:27:14;101182.31;;;18.21;44.10
48200;BME280;33990;44.602;10.976;2023-04-08T06:29:42;101179.66;;;18.21;44.14
48200;BME280;33990;44.602;10.976;2023-04-08T06:32:09;101192.91;;;18.22;44.12
48200;BME280;33990;44.602;10.976;2023-04-08T06:34:37;101186.72;;;18.22;44.04
48200;BME280;33990;44.602;10.976;2023-04-08T06:37:04;101184.03;;;18.22;44.20
48200;BME280;33990;44.602;10.976;2023-04-08T06:39:32;101184.03;;;18.22;44.00
48200;BME280;33990;44.602;10.976;2023-04-08T06:42:00;101192.91;;;18.22;43.98
48200;BME280;33990;44.602;10.976;2023-04-08T06:45:03;101187.56;;;18.22;44.05
48200;BME280;33990;44.602;10.976;2023-04-08T06:47:30;101191.09;;;18.23;44.08
48200;BME280;33990;44.602;10.976;2023-04-08T06:49:58;101186.72;;;18.22;44.12
48200;BME280;33990;44.602;10.976;2023-04-08T06:52:25;101192.91;;;18.22;44.03
48200;BME280;33990;44.602;10.976;2023-04-08T06:54:53;101192.06;;;18.22;44.09
48200;BME280;33990;44.602;10.976;2023-04-08T06:57:20;101193.91;;;18.21;43.96
48200;BME280;33990;44.602;10.976;2023-04-08T06:59:48;101193.91;;;18.21;43.99
48200;BME280;33990;44.602;10.976;2023-04-08T07:02:15;101195.59;;;18.22;43.98
48200;BME280;33990;44.602;10.976;2023-04-08T07:04:42;101192.91;;;18.22;43.91
48200;BME280;33990;44.602;10.976;2023-04-08T07:07:13;101192.91;;;18.22;44.08
48200;BME280;33990;44.602;10.976;2023-04-08T07:09:40;101192.91;;;18.22;44.18
48200;BME280;33990;44.602;10.976;2023-04-08T07:12:09;101195.59;;;18.22;43.99
48200;BME280;33990;44.602;10.976;2023-04-08T07:14:36;101194.75;;;18.22;43.96
48200;BME280;33990;44.602;10.976;2023-04-08T07:17:03;101196.44;;;18.23;44.08
48200;BME280;33990;44.602;10.976;2023-04-08T07:19:31;101194.66;;;18.23;44.01
48200;BME280;33990;44.602;10.976;2023-04-08T07:21:59;101200.88;;;18.24;44.02
48200;BME280;33990;44.602;10.976;2023-04-08T07:24:26;101205.38;;;18.23;44.22
48200;BME280;33990;44.602;10.976;2023-04-08T07:26:54;101198.28;;;18.22;44.13
48200;BME280;33990;44.602;10.976;2023-04-08T07:29:22;101203.63;;;18.22;44.15
48200;BME280;33990;44.602;10.976;2023-04-08T07:31:50;101201.81;;;18.23;44.21
48200;BME280;33990;44.602;10.976;2023-04-08T07:34:17;101205.38;;;18.23;44.16
48200;BME280;33990;44.602;10.976;2023-04-08T07:36:45;101209.75;;;18.24;44.22
48200;BME280;33990;44.602;10.976;2023-04-08T07:39:12;101208.06;;;18.23;44.31
48200;BME280;33990;44.602;10.976;2023-04-08T07:41:39;101205.38;;;18.23;44.28
48200;BME280;33990;44.602;10.976;2023-04-08T07:44:07;101212.44;;;18.24;44.28
48200;BME280;33990;44.602;10.976;2023-04-08T07:46:37;101214.25;;;18.24;44.39
48200;BME280;33990;44.602;10.976;2023-04-08T07:49:05;101213.28;;;18.25;44.26
48200;BME280;33990;44.602;10.976;2023-04-08T07:51:32;101210.72;;;18.23;44.42
48200;BME280;33990;44.602;10.976;2023-04-08T07:54:00;101220.47;;;18.24;44.61
48200;BME280;33990;44.602;10.976;2023-04-08T07:56:28;101208.78;;;18.25;44.22
48200;BME280;33990;44.602;10.976;2023-04-08T07:58:55;101223.88;;;18.26;44.39
48200;BME280;33990;44.602;10.976;2023-04-08T08:01:22;101217.56;;;18.27;44.31
48200;BME280;33990;44.602;10.976;2023-04-08T08:03:50;101216.59;;;18.28;44.28
48200;BME280;33990;44.602;10.976;2023-04-08T08:06:19;101208.56;;;18.28;44.29
48200;BME280;33990;44.602;10.976;2023-04-08T08:08:48;101216.38;;;18.32;44.31
48200;BME280;33990;44.602;10.976;2023-04-08T08:11:15;101210.88;;;18.33;44.46
48200;BME280;33990;44.602;10.976;2023-04-08T08:13:42;101215.16;;;18.36;44.53
48200;BME280;33990;44.602;10.976;2023-04-08T08:16:10;101215.16;;;18.36;44.60
48200;BME280;33990;44.602;10.976;2023-04-08T08:18:39;101223.84;;;18.39;44.67
48200;BME280;33990;44.602;10.976;2023-04-08T08:21:07;101210.31;;;18.41;44.60
48200;BME280;33990;44.602;10.976;2023-04-08T08:23:35;101221.75;;;18.43;44.41
48200;BME280;33990;44.602;10.976;2023-04-08T08:26:06;101217.28;;;18.43;44.62
48200;BME280;33990;44.602;10.976;2023-04-08T08:28:33;101215.44;;;18.44;44.58
48200;BME280;33990;44.602;10.976;2023-04-08T08:31:01;101218.22;;;18.42;44.57
48200;BME280;33990;44.602;10.976;2023-04-08T08:33:32;101216.38;;;18.43;44.42
48200;BME280;33990;44.602;10.976;2023-04-08T08:36:00;101226.25;;;18.42;44.22
48200;BME280;33990;44.602;10.976;2023-04-08T08:38:27;101227.25;;;18.41;44.38
48200;BME280;33990;44.602;10.976;2023-04-08T08:40:58;101222.00;;;18.40;44.51
48200;BME280;33990;44.602;10.976;2023-04-08T08:43:27;101221.16;;;18.39;44.19
48200;BME280;33990;44.602;10.976;2023-04-08T08:45:55;101218.56;;;18.38;44.02
48200;BME280;33990;44.602;10.976;2023-04-08T08:48:22;101223.06;;;18.37;44.18
48200;BME280;33990;44.602;10.976;2023-04-08T08:50:50;101225.88;;;18.36;44.23
48200;BME280;33990;44.602;10.976;2023-04-08T08:53:17;101225.03;;;18.35;44.06
48200;BME280;33990;44.602;10.976;2023-04-08T08:55:46;101230.41;;;18.35;44.05
48200;BME280;33990;44.602;10.976;2023-04-08T08:58:17;101225.75;;;18.37;44.19
48200;BME280;33990;44.602;10.976;2023-04-08T09:00:45;101224.78;;;18.38;44.28
48200;BME280;33990;44.602;10.976;2023-04-08T09:03:17;101224.56;;;18.41;44.32
48200;BME280;33990;44.602;10.976;2023-04-08T09:05:50;101221.75;;;18.43;44.35
48200;BME280;33990;44.602;10.976;2023-04-08T09:08:25;101224.44;;;18.43;44.35
48200;BME280;33990;44.602;10.976;2023-04-08T09:10:54;101223.47;;;18.44;44.43
48200;BME280;33990;44.602;10.976;2023-04-08T09:13:22;101224.44;;;18.43;44.37
48200;BME280;33990;44.602;10.976;2023-04-08T09:16:04;101228.00;;;18.43;44.54
48200;BME280;33990;44.602;10.976;2023-04-08T09:18:32;101226.03;;;18.45;44.53
48200;BME280;33990;44.602;10.976;2023-04-08T09:21:01;101225.81;;;18.48;44.79
48200;BME280;33990;44.602;10.976;2023-04-08T09:23:50;101226.06;;;18.57;44.68
48200;BME280;33990;44.602;10.976;2023-04-08T09:26:23;101228.66;;;18.69;44.50
48200;BME280;33990;44.602;10.976;2023-04-08T09:31:54;101220.91;;;18.77;44.53
48200;BME280;33990;44.602;10.976;2023-04-08T09:34:23;101216.53;;;18.76;44.59
48200;BME280;33990;44.602;10.976;2023-04-08T09:36:54;101217.38;;;18.77;44.41
48200;BME280;33990;44.602;10.976;2023-04-08T09:39:22;101218.47;;;18.74;44.37
48200;BME280;33990;44.602;10.976;2023-04-08T09:41:51;101216.91;;;18.72;44.14
48200;BME280;33990;44.602;10.976;2023-04-08T09:44:20;101223.31;;;18.69;44.18
48200;BME280;33990;44.602;10.976;2023-04-08T09:49:45;101217.31;;;18.66;44.33
48200;BME280;33990;44.602;10.976;2023-04-08T09:52:19;101222.81;;;18.64;44.17
48200;BME280;33990;44.602;10.976;2023-04-08T10:00:13;101210.13;;;18.66;44.66
48200;BME280;33990;44.602;10.976;2023-04-08T10:02:54;101208.28;;;18.67;44.54
48200;BME280;33990;44.602;10.976;2023-04-08T10:05:23;101211.09;;;18.65;44.73
48200;BME280;33990;44.602;10.976;2023-04-08T10:07:51;101210.25;;;18.65;44.66
48200;BME280;33990;44.602;10.976;2023-04-08T10:10:19;101207.66;;;18.63;44.56
48200;BME280;33990;44.602;10.976;2023-04-08T10:12:47;101202.22;;;18.65;44.56
48200;BME280;33990;44.602;10.976;2023-04-08T10:15:27;101211.09;;;18.65;44.74
48200;BME280;33990;44.602;10.976;2023-04-08T10:20:47;101206.72;;;18.64;44.46
48200;BME280;33990;44.602;10.976;2023-04-08T10:23:16;101205.88;;;18.64;44.45
48200;BME280;33990;44.602;10.976;2023-04-08T10:25:47;101200.38;;;18.65;44.42
48200;BME280;33990;44.602;10.976;2023-04-08T10:30:46;101200.38;;;18.65;44.47
48200;BME280;33990;44.602;10.976;2023-04-08T10:33:32;101204.75;;;18.66;44.47
48200;BME280;33990;44.602;10.976;2023-04-08T10:38:39;101192.19;;;18.67;44.53
48200;BME280;33990;44.602;10.976;2023-04-08T10:41:12;101187.69;;;18.67;44.25
48200;BME280;33990;44.602;10.976;2023-04-08T10:43:40;101192.09;;;18.68;44.01
48200;BME280;33990;44.602;10.976;2023-04-08T10:46:09;101186.84;;;18.67;44.31
48200;BME280;33990;44.602;10.976;2023-04-08T10:48:37;101182.31;;;18.67;44.49
48200;BME280;33990;44.602;10.976;2023-04-08T10:51:05;101189.41;;;18.68;44.20
48200;BME280;33990;44.602;10.976;2023-04-08T10:53:35;101186.63;;;18.70;44.57
48200;BME280;33990;44.602;10.976;2023-04-08T10:58:34;101175.78;;;18.71;44.56
48200;BME280;33990;44.602;10.976;2023-04-08T11:01:06;101190.06;;;18.72;44.09
48200;BME280;33990;44.602;10.976;2023-04-08T11:03:35;101189.19;;;18.71;43.96
48200;BME280;33990;44.602;10.976;2023-04-08T11:06:04;101174.94;;;18.71;44.22
48200;BME280;33990;44.602;10.976;2023-04-08T11:08:33;101173.97;;;18.72;43.99
48200;BME280;33990;44.602;10.976;2023-04-08T11:11:00;101177.63;;;18.71;44.16
48200;BME280;33990;44.602;10.976;2023-04-08T11:13:28;101171.41;;;18.70;44.22
48200;BME280;33990;44.602;10.976;2023-04-08T11:15:58;101172.34;;;18.69;44.09
48200;BME280;33990;44.602;10.976;2023-04-08T11:18:26;101169.66;;;18.69;44.11
48200;BME280;33990;44.602;10.976;2023-04-08T11:20:54;101164.44;;;18.68;44.12
48200;BME280;33990;44.602;10.976;2023-04-08T11:23:24;101162.59;;;18.68;44.16
48200;BME280;33990;44.602;10.976;2023-04-08T11:25:52;101168.06;;;18.67;43.87
48200;BME280;33990;44.602;10.976;2023-04-08T11:28:21;101169.91;;;18.66;43.79
48200;BME280;33990;44.602;10.976;2023-04-08T11:30:48;101159.16;;;18.66;43.65
48200;BME280;33990;44.602;10.976;2023-04-08T11:33:16;101155.63;;;18.66;43.64
48200;BME280;33990;44.602;10.976;2023-04-08T11:35:44;101152.09;;;18.65;43.52
48200;BME280;33990;44.602;10.976;2023-04-08T11:38:11;101145.03;;;18.64;43.40
48200;BME280;33990;44.602;10.976;2023-04-08T11:40:39;101145.03;;;18.64;43.60
48200;BME280;33990;44.602;10.976;2023-04-08T11:43:10;101144.19;;;18.64;43.61
48200;BME280;33990;44.602;10.976;2023-04-08T11:45:38;101148.56;;;18.65;43.47
48200;BME280;33990;44.602;10.976;2023-04-08T11:48:10;101145.03;;;18.64;43.59
48200;BME280;33990;44.602;10.976;2023-04-08T11:50:37;101142.38;;;18.64;43.62
48200;BME280;33990;44.602;10.976;2023-04-08T11:53:21;101140.53;;;18.65;43.76
48200;BME280;33990;44.602;10.976;2023-04-08T11:55:51;101139.69;;;18.64;43.79
48200;BME280;33990;44.602;10.976;2023-04-08T11:58:18;101147.72;;;18.64;43.66
48200;BME280;33990;44.602;10.976;2023-04-08T12:00:45;101141.50;;;18.64;43.47
48200;BME280;33990;44.602;10.976;2023-04-08T12:03:13;101132.50;;;18.65;43.45
48200;BME280;33990;44.602;10.976;2023-04-08T12:05:41;101138.69;;;18.65;43.66
48200;BME280;33990;44.602;10.976;2023-04-08T12:08:08;101137.84;;;18.65;43.65
48200;BME280;33990;44.602;10.976;2023-04-08T12:10:36;101129.81;;;18.65;43.51
48200;BME280;33990;44.602;10.976;2023-04-08T12:13:03;101134.31;;;18.64;43.52
48200;BME280;33990;44.602;10.976;2023-04-08T12:15:31;101139.69;;;18.64;43.28
48200;BME280;33990;44.602;10.976;2023-04-08T12:17:58;101130.78;;;18.64;43.36
48200;BME280;33990;44.602;10.976;2023-04-08T12:20:26;101134.31;;;18.64;43.35
48200;BME280;33990;44.602;10.976;2023-04-08T12:22:53;101127.22;;;18.63;43.19
48200;BME280;33990;44.602;10.976;2023-04-08T12:25:21;101128.09;;;18.64;43.24
48200;BME280;33990;44.602;10.976;2023-04-08T12:27:48;101119.19;;;18.63;43.38
48200;BME280;33990;44.602;10.976;2023-04-08T12:30:15;101115.66;;;18.63;43.33
48200;BME280;33990;44.602;10.976;2023-04-08T12:32:43;101115.66;;;18.63;43.40
48200;BME280;33990;44.602;10.976;2023-04-08T12:35:12;101111.13;;;18.63;43.33
48200;BME280;33990;44.602;10.976;2023-04-08T12:37:39;101109.34;;;18.64;43.40
48200;BME280;33990;44.602;10.976;2023-04-08T12:40:07;101103.97;;;18.64;43.22
48200;BME280;33990;44.602;10.976;2023-04-08T12:42:35;101107.50;;;18.64;43.15
48200;BME280;33990;44.602;10.976;2023-04-08T12:45:02;101111.03;;;18.65;42.95
48200;BME280;33990;44.602;10.976;2023-04-08T12:47:29;101104.81;;;18.64;42.91
48200;BME280;33990;44.602;10.976;2023-04-08T12:49:57;101107.50;;;18.64;42.88
48200;BME280;33990;44.602;10.976;2023-04-08T12:52:24;101106.66;;;18.64;42.94
48200;BME280;33990;44.602;10.976;2023-04-08T12:54:51;101107.50;;;18.64;43.03
48200;BME280;33990;44.602;10.976;2023-04-08T12:57:19;101100.41;;;18.63;42.93
48200;BME280;33990;44.602;10.976;2023-04-08T12:59:46;101109.34;;;18.64;42.98
48200;BME280;33990;44.602;10.976;2023-04-08T13:02:13;101112.03;;;18.64;42.93
48200;BME280;33990;44.602;10.976;2023-04-08T13:04:41;101104.81;;;18.64;42.68
48200;BME280;33990;44.602;10.976;2023-04-08T13:07:08;101106.66;;;18.64;42.79
48200;BME280;33990;44.602;10.976;2023-04-08T13:09:36;101103.09;;;18.63;42.63
48200;BME280;33990;44.602;10.976;2023-04-08T13:12:03;101111.13;;;18.63;42.50
48200;BME280;33990;44.602;10.976;2023-04-08T13:14:31;101100.41;;;18.63;42.57
48200;BME280;33990;44.602;10.976;2023-04-08T13:16:58;101104.91;;;18.63;42.73